createdAt,value
2018-05-15T00:01:05.000Z,42.73
2018-05-15T00:03:34.588Z,42.54
2018-05-15T00:06:03.493Z,42.75
2018-05-15T00:08:33.702Z,43.14
2018-05-15T00:11:02.016Z,43.81
2018-05-15T00:13:30.605Z,43.61
2018-05-15T00:16:00.442Z,44.04
2018-05-15T00:18:28.800Z,45.08
2018-05-15T00:20:57.199Z,45.15
2018-05-15T00:23:26.487Z,45.23
2018-05-15T00:25:55.224Z,44.99
2018-05-15T00:28:23.616Z,45.61
2018-05-15T00:30:51.955Z,45.74
2018-05-15T00:33:22.342Z,46.33
2018-05-15T00:35:52.381Z,45.31
2018-05-15T00:38:20.725Z,45.09
2018-05-15T00:40:49.846Z,45.23
2018-05-15T00:43:19.151Z,45.06
2018-05-15T00:45:49.061Z,45.92
2018-05-15T00:48:18.742Z,45.64
2018-05-15T00:50:47.564Z,45.33
2018-05-15T00:53:16.733Z,45.70
2018-05-15T00:55:45.060Z,44.72
2018-05-15T00:58:15.319Z,44.20
2018-05-15T01:00:44.528Z,44.88
2018-05-15T01:03:13.200Z,45.24
2018-05-15T01:05:41.596Z,44.57
2018-05-15T01:08:10.841Z,44.69
2018-05-15T01:10:39.184Z,44.40
2018-05-15T01:13:07.549Z,44.30
2018-05-15T01:15:36.550Z,44.38
2018-05-15T01:18:05.141Z,44.80
2018-05-15T01:20:34.378Z,44.71
2018-05-15T01:23:03.012Z,44.85
2018-05-15T01:25:32.181Z,44.71
2018-05-15T01:28:01.506Z,45.70
2018-05-15T01:30:29.858Z,45.48
2018-05-15T01:32:58.497Z,45.17
2018-05-15T01:35:27.735Z,45.81
2018-05-15T01:37:56.139Z,45.42
2018-05-15T01:40:25.394Z,45.53
2018-05-15T01:42:55.514Z,46.14
2018-05-15T01:45:23.864Z,46.52
2018-05-15T01:47:52.298Z,46.08
2018-05-15T01:50:21.088Z,46.62
2018-05-15T01:52:49.441Z,46.62
2018-05-15T01:55:17.834Z,46.55
2018-05-15T01:57:46.252Z,46.49
2018-05-15T02:00:16.142Z,46.33
2018-05-15T02:02:46.423Z,46.73
2018-05-15T02:05:15.525Z,46.56
2018-05-15T02:07:43.856Z,46.69
2018-05-15T02:10:13.008Z,46.96
2018-05-15T02:12:41.385Z,47.17
2018-05-15T02:15:09.739Z,47.26
2018-05-15T02:17:39.034Z,47.18
2018-05-15T02:20:08.247Z,47.77
2018-05-15T02:22:37.708Z,47.84
2018-05-15T02:25:06.074Z,48.57
2018-05-15T02:27:35.186Z,47.87
2018-05-15T02:30:05.463Z,47.94
2018-05-15T02:32:34.538Z,48.17
2018-05-15T02:35:03.837Z,48.18
2018-05-15T02:37:32.625Z,48.54
2018-05-15T02:40:03.233Z,48.16
2018-05-15T02:42:32.999Z,48.53
2018-05-15T02:45:01.351Z,48.91
2018-05-15T02:47:29.724Z,48.53
2018-05-15T02:49:58.469Z,48.77
2018-05-15T02:52:28.542Z,48.65
2018-05-15T02:54:57.033Z,48.90
2018-05-15T02:57:26.785Z,48.96
2018-05-15T02:59:55.694Z,49.01
2018-05-15T03:02:24.132Z,48.61
2018-05-15T03:04:53.388Z,48.82
2018-05-15T03:07:21.753Z,48.69
2018-05-15T03:09:51.034Z,48.65
2018-05-15T03:12:19.716Z,48.36
2018-05-15T03:14:50.167Z,48.50
2018-05-15T03:17:20.306Z,49.11
2018-05-15T03:19:49.606Z,48.97
2018-05-15T03:22:18.899Z,49.12
2018-05-15T03:24:47.682Z,49.26
2018-05-15T03:27:17.774Z,49.09
2018-05-15T03:29:47.118Z,49.22
2018-05-15T03:32:16.430Z,49.83
2018-05-15T03:34:44.816Z,49.13
2018-05-15T03:37:13.231Z,50.20
2018-05-15T03:39:42.531Z,50.23
2018-05-15T03:42:11.395Z,51.12
2018-05-15T03:44:39.760Z,50.95
2018-05-15T03:47:08.098Z,50.67
2018-05-15T03:49:37.545Z,50.97
2018-05-15T03:52:05.878Z,50.38
2018-05-15T03:54:34.371Z,51.80
2018-05-15T03:57:03.817Z,51.25
2018-05-15T03:59:32.178Z,51.42
2018-05-15T04:02:15.217Z,51.01
2018-05-15T04:04:56.732Z,50.79
2018-05-15T04:07:37.733Z,50.19
2018-05-15T04:10:06.838Z,51.24
2018-05-15T04:12:35.177Z,51.02
2018-05-15T04:15:04.519Z,51.38
2018-05-15T04:17:32.944Z,52.07
2018-05-15T04:20:01.292Z,51.25
2018-05-15T04:22:30.550Z,51.84
2018-05-15T04:24:58.917Z,51.10
2018-05-15T04:27:27.287Z,51.41
2018-05-15T04:29:55.895Z,51.67
2018-05-15T04:32:24.276Z,52.04
2018-05-15T04:34:54.376Z,52.06
2018-05-15T04:37:22.724Z,52.29
2018-05-15T04:39:51.866Z,51.87
2018-05-15T04:42:20.235Z,51.30
2018-05-15T04:44:49.525Z,51.40
2018-05-15T04:47:18.391Z,50.59
2018-05-15T04:49:49.275Z,50.80
2018-05-15T04:52:18.120Z,50.80
2018-05-15T04:54:48.812Z,51.48
2018-05-15T04:57:18.569Z,51.36
2018-05-15T04:59:47.727Z,50.45
2018-05-15T05:02:16.141Z,51.09
2018-05-15T05:04:44.497Z,51.47
2018-05-15T05:07:12.826Z,51.99
2018-05-15T05:09:42.067Z,51.30
2018-05-15T05:12:12.040Z,51.28
2018-05-15T05:14:41.732Z,51.14
2018-05-15T05:17:10.192Z,52.20
2018-05-15T05:19:39.280Z,52.61
2018-05-15T05:22:07.641Z,52.50
2018-05-15T05:24:35.997Z,53.27
2018-05-15T05:27:05.317Z,53.37
2018-05-15T05:29:34.464Z,54.01
2018-05-15T05:32:04.630Z,53.31
2018-05-15T05:34:34.157Z,52.48
2018-05-15T05:37:03.601Z,52.30
2018-05-15T05:39:32.676Z,52.37
2018-05-15T05:42:03.126Z,52.57
2018-05-15T05:44:31.532Z,52.59
2018-05-15T05:47:01.333Z,52.56
2018-05-15T05:49:30.621Z,53.20
2018-05-15T05:51:59.295Z,52.70
2018-05-15T05:54:28.452Z,53.26
2018-05-15T05:56:57.713Z,53.28
2018-05-15T05:59:26.804Z,52.47
2018-05-15T06:01:56.197Z,52.99
2018-05-15T06:04:26.105Z,53.37
2018-05-15T06:06:55.446Z,52.28
2018-05-15T06:09:25.734Z,51.86
2018-05-15T06:11:55.568Z,52.33
2018-05-15T06:14:24.663Z,52.07
2018-05-15T06:16:53.935Z,51.45
2018-05-15T06:19:25.710Z,51.14
2018-05-15T06:21:55.797Z,51.60
2018-05-15T06:24:25.544Z,51.92
2018-05-15T06:26:53.963Z,51.07
2018-05-15T06:29:24.337Z,50.73
2018-05-15T06:31:53.317Z,51.00
2018-05-15T06:34:23.349Z,51.29
2018-05-15T06:36:52.070Z,50.60
2018-05-15T06:39:21.665Z,50.67
2018-05-15T06:41:52.084Z,49.87
2018-05-15T06:44:20.813Z,49.38
2018-05-15T06:46:53.364Z,50.32
2018-05-15T06:49:26.624Z,49.15
2018-05-15T06:51:56.037Z,49.59
2018-05-15T06:54:24.712Z,49.80
2018-05-15T06:56:53.899Z,48.14
2018-05-15T06:59:22.501Z,48.13
2018-05-15T07:01:52.740Z,48.63
2018-05-15T07:04:21.134Z,48.02
2018-05-15T07:06:49.779Z,47.93
2018-05-15T07:09:19.038Z,47.13
2018-05-15T07:11:48.948Z,47.42
2018-05-15T07:14:18.296Z,47.64
2018-05-15T07:16:47.446Z,48.65
2018-05-15T07:19:19.199Z,48.60
2018-05-15T07:21:50.398Z,47.71
2018-05-15T07:24:19.952Z,48.07
2018-05-15T07:26:48.857Z,47.64
2018-05-15T07:29:18.506Z,46.56
2018-05-15T07:31:46.877Z,46.36
2018-05-15T07:34:19.446Z,46.94
2018-05-15T07:36:50.320Z,47.36
2018-05-15T07:39:20.842Z,47.47
2018-05-15T07:41:49.268Z,48.00
2018-05-15T07:44:18.817Z,47.36
2018-05-15T07:46:48.615Z,46.76
2018-05-15T07:49:16.990Z,46.05
2018-05-15T07:51:45.439Z,46.17
2018-05-15T07:54:14.685Z,45.96
2018-05-15T07:56:43.848Z,42.33
2018-05-15T07:59:14.524Z,42.51
2018-05-15T08:01:45.900Z,42.03
2018-05-15T08:04:15.110Z,40.60
2018-05-15T08:06:44.515Z,41.70
2018-05-15T08:09:13.212Z,41.76
2018-05-15T08:11:42.819Z,40.75
2018-05-15T08:14:12.588Z,41.18
2018-05-15T08:16:40.981Z,39.25
2018-05-15T08:19:10.036Z,39.67
2018-05-15T08:21:39.420Z,40.02
2018-05-15T08:24:08.812Z,39.44
2018-05-15T08:26:37.217Z,39.81
2018-05-15T08:29:06.490Z,38.69
2018-05-15T08:31:35.789Z,39.08
2018-05-15T08:34:04.917Z,39.50
2018-05-15T08:36:33.316Z,39.35
2018-05-15T08:39:01.668Z,38.98
2018-05-15T08:41:32.010Z,40.25
2018-05-15T08:44:01.829Z,39.67
2018-05-15T08:46:30.678Z,39.98
2018-05-15T08:48:59.025Z,40.13
2018-05-15T08:51:27.907Z,39.31
2018-05-15T08:53:57.140Z,39.75
2018-05-15T08:56:27.045Z,39.76
2018-05-15T08:58:56.796Z,40.43
2018-05-15T09:01:25.159Z,40.08
2018-05-15T09:03:54.414Z,41.13
2018-05-15T09:06:23.074Z,38.97
2018-05-15T09:08:51.721Z,40.15
2018-05-15T09:11:20.940Z,37.99
2018-05-15T09:13:50.441Z,38.69
2018-05-15T09:16:20.208Z,37.83
2018-05-15T09:18:49.817Z,37.73
2018-05-15T09:21:18.258Z,38.45
2018-05-15T09:23:46.867Z,38.47
2018-05-15T09:26:15.261Z,37.06
2018-05-15T09:28:44.733Z,37.67
2018-05-15T09:31:13.822Z,38.97
2018-05-15T09:33:43.084Z,39.04
2018-05-15T09:36:11.706Z,37.03
2018-05-15T09:38:40.032Z,37.33
2018-05-15T09:41:08.832Z,36.51
2018-05-15T09:43:54.983Z,37.99
2018-05-15T09:46:23.969Z,35.33
2018-05-15T09:48:53.132Z,34.91
2018-05-15T09:51:21.960Z,35.21
2018-05-15T09:53:51.266Z,36.12
2018-05-15T09:56:19.637Z,34.65
2018-05-15T09:58:48.010Z,36.12
2018-05-15T10:01:17.166Z,35.52
2018-05-15T10:03:46.485Z,34.53
2018-05-15T10:06:15.741Z,33.64
2018-05-15T10:08:45.446Z,33.57
2018-05-15T10:11:15.325Z,34.95
2018-05-15T10:13:43.801Z,33.88
2018-05-15T10:16:12.159Z,34.43
2018-05-15T10:18:41.927Z,34.22
2018-05-15T10:21:10.322Z,31.38
2018-05-15T10:23:39.414Z,31.85
2018-05-15T10:26:08.006Z,33.03
2018-05-15T10:28:36.731Z,32.72
2018-05-15T10:31:05.080Z,31.98
2018-05-15T10:33:33.608Z,31.61
2018-05-15T10:36:02.214Z,30.51
2018-05-15T10:38:31.298Z,31.32
2018-05-15T10:40:59.651Z,32.78
2018-05-15T10:43:28.015Z,30.17
2018-05-15T10:45:57.500Z,30.72
2018-05-15T10:48:25.872Z,29.76
2018-05-15T10:50:54.229Z,30.47
2018-05-15T10:53:23.064Z,30.39
2018-05-15T10:55:51.520Z,30.44
2018-05-15T10:58:20.736Z,30.36
2018-05-15T11:00:49.474Z,30.51
2018-05-15T11:03:19.314Z,30.08
2018-05-15T11:05:48.531Z,31.34
2018-05-15T11:08:17.777Z,30.54
2018-05-15T11:10:46.489Z,30.45
2018-05-15T11:13:16.563Z,30.11
2018-05-15T11:15:49.162Z,29.09
2018-05-15T11:18:31.096Z,29.31
2018-05-15T11:21:12.806Z,30.83
2018-05-15T11:23:54.320Z,29.53
2018-05-15T11:26:23.803Z,27.86
2018-05-15T11:28:54.041Z,29.30
2018-05-15T11:31:22.786Z,27.69
2018-05-15T11:33:52.184Z,28.91
2018-05-15T11:36:21.279Z,29.95
2018-05-15T11:38:49.622Z,29.76
2018-05-15T11:41:18.774Z,29.62
2018-05-15T11:43:47.323Z,30.43
2018-05-15T11:46:16.601Z,30.51
2018-05-15T11:48:46.135Z,30.70
2018-05-15T11:51:14.528Z,29.82
2018-05-15T11:53:42.677Z,30.19
2018-05-15T11:56:11.029Z,30.20
2018-05-15T11:58:39.357Z,30.15
2018-05-15T12:01:07.744Z,31.02
2018-05-15T12:03:36.827Z,29.26
2018-05-15T12:06:05.192Z,29.91
2018-05-15T12:08:34.444Z,30.09
2018-05-15T12:11:02.807Z,31.80
2018-05-15T12:13:31.165Z,31.21
2018-05-15T12:15:59.552Z,30.44
2018-05-15T12:18:28.099Z,30.89
2018-05-15T12:20:57.001Z,31.81
2018-05-15T12:23:26.693Z,30.52
2018-05-15T12:25:55.049Z,30.61
2018-05-15T12:28:23.386Z,30.63
2018-05-15T12:30:51.751Z,30.08
2018-05-15T12:33:21.081Z,31.01
2018-05-15T12:35:49.519Z,31.09
2018-05-15T12:38:21.861Z,30.16
2018-05-15T12:40:50.188Z,29.50
2018-05-15T12:43:18.948Z,29.78
2018-05-15T12:45:47.923Z,30.67
2018-05-15T12:48:16.352Z,30.03
2018-05-15T12:50:45.482Z,30.76
2018-05-15T12:53:13.885Z,30.45
2018-05-15T12:55:42.217Z,31.42
2018-05-15T12:58:10.593Z,30.97
2018-05-15T13:00:38.945Z,33.15
2018-05-15T13:03:07.322Z,33.37
2018-05-15T13:05:36.049Z,33.91
2018-05-15T13:08:04.637Z,33.75
2018-05-15T13:10:34.282Z,33.93
2018-05-15T13:13:02.675Z,33.28
2018-05-15T13:15:31.021Z,33.05
2018-05-15T13:18:00.116Z,33.05
2018-05-15T13:20:28.496Z,32.42
2018-05-15T13:22:57.772Z,33.14
2018-05-15T13:25:26.103Z,31.44
2018-05-15T13:27:54.514Z,31.35
2018-05-15T13:30:23.135Z,31.47
2018-05-15T13:32:51.530Z,32.30
2018-05-15T13:35:21.616Z,33.28
2018-05-15T13:37:53.044Z,32.87
2018-05-15T13:40:21.407Z,32.97
2018-05-15T13:42:49.738Z,32.93
2018-05-15T13:45:18.154Z,33.38
2018-05-15T13:47:46.486Z,32.04
2018-05-15T13:50:19.693Z,31.05
2018-05-15T13:52:48.958Z,31.01
2018-05-15T13:55:17.320Z,30.02
2018-05-15T13:57:46.514Z,29.85
2018-05-15T14:00:15.200Z,29.94
2018-05-15T14:02:43.527Z,28.19
2018-05-15T14:05:11.895Z,27.83
2018-05-15T14:07:40.390Z,28.33
2018-05-15T14:10:09.745Z,27.21
2018-05-15T14:12:38.699Z,27.38
2018-05-15T14:15:07.061Z,27.17
2018-05-15T14:17:35.405Z,27.51
2018-05-15T14:20:03.763Z,29.39
2018-05-15T14:22:32.105Z,27.05
2018-05-15T14:25:00.462Z,26.93
2018-05-15T14:27:28.787Z,26.48
2018-05-15T14:29:57.974Z,25.79
2018-05-15T14:32:26.301Z,25.55
2018-05-15T14:34:54.672Z,27.67
2018-05-15T14:37:23.633Z,27.84
2018-05-15T14:39:51.997Z,29.11
2018-05-15T14:42:31.980Z,27.84
2018-05-15T14:45:00.333Z,27.50
2018-05-15T14:47:30.440Z,28.22
2018-05-15T14:49:58.842Z,27.73
2018-05-15T14:52:28.022Z,27.00
2018-05-15T14:54:56.368Z,26.51
2018-05-15T14:57:25.645Z,26.94
2018-05-15T14:59:54.840Z,27.33
2018-05-15T15:02:23.172Z,27.83
2018-05-15T15:04:52.465Z,27.62
2018-05-15T15:07:20.822Z,27.21
2018-05-15T15:09:49.197Z,27.82
2018-05-15T15:12:17.553Z,27.22
2018-05-15T15:14:45.884Z,27.24
2018-05-15T15:17:14.260Z,26.27
2018-05-15T15:19:43.873Z,26.71
2018-05-15T15:22:12.846Z,25.43
2018-05-15T15:24:41.177Z,25.31
2018-05-15T15:27:11.280Z,26.31
2018-05-15T15:29:39.653Z,26.32
2018-05-15T15:32:08.348Z,26.53
2018-05-15T15:34:37.290Z,26.99
2018-05-15T15:37:05.677Z,27.11
2018-05-15T15:39:34.246Z,27.50
2018-05-15T15:42:02.595Z,29.32
2018-05-15T15:44:30.969Z,29.45
2018-05-15T15:47:00.254Z,29.33
2018-05-15T15:49:28.588Z,29.28
2018-05-15T15:51:58.242Z,29.75
2018-05-15T15:54:27.407Z,29.85
2018-05-15T15:56:56.366Z,29.90
2018-05-15T15:59:24.768Z,30.47
2018-05-15T16:01:53.171Z,29.90
2018-05-15T16:04:21.779Z,30.65
2018-05-15T16:06:51.477Z,30.92
2018-05-15T16:09:22.112Z,31.46
2018-05-15T16:11:56.653Z,30.83
2018-05-15T16:14:26.706Z,30.78
2018-05-15T16:16:55.187Z,30.72
2018-05-15T16:19:23.888Z,30.67
2018-05-15T16:21:52.285Z,29.88
2018-05-15T16:24:20.621Z,29.71
2018-05-15T16:26:49.006Z,30.52
2018-05-15T16:29:17.328Z,31.75
2018-05-15T16:31:46.437Z,31.26
2018-05-15T16:34:14.771Z,31.05
2018-05-15T16:36:44.368Z,30.49
2018-05-15T16:39:12.762Z,31.02
2018-05-15T16:41:41.979Z,31.10
2018-05-15T16:44:10.808Z,30.98
2018-05-15T16:46:39.226Z,31.34
2018-05-15T16:49:08.366Z,32.08
2018-05-15T16:51:37.627Z,32.32
2018-05-15T16:54:05.999Z,32.51
2018-05-15T16:56:34.367Z,32.16
2018-05-15T16:59:02.734Z,32.46
2018-05-15T17:01:32.833Z,32.60
2018-05-15T17:04:02.965Z,32.56
2018-05-15T17:06:31.289Z,33.12
2018-05-15T17:08:59.943Z,33.27
2018-05-15T17:11:28.324Z,37.10
2018-05-15T17:13:57.580Z,40.41
2018-05-15T17:16:26.037Z,40.30
2018-05-15T17:18:55.226Z,44.92
2018-05-15T17:21:23.557Z,47.84
2018-05-15T17:23:51.921Z,52.49
2018-05-15T17:26:20.249Z,52.70
2018-05-15T17:28:49.443Z,54.32
2018-05-15T17:31:18.134Z,55.10
2018-05-15T17:33:46.633Z,57.47
2018-05-15T17:36:14.972Z,59.13
2018-05-15T17:38:43.363Z,58.38
2018-05-15T17:41:11.690Z,57.00
2018-05-15T17:43:40.862Z,56.97
2018-05-15T17:46:09.185Z,57.80
2018-05-15T17:48:37.724Z,56.95
2018-05-15T17:51:06.914Z,57.00
2018-05-15T17:53:35.384Z,57.14
2018-05-15T17:56:03.744Z,56.49
2018-05-15T17:58:32.887Z,56.32
2018-05-15T18:01:01.234Z,56.53
2018-05-15T18:03:30.367Z,56.52
2018-05-15T18:05:58.735Z,57.81
2018-05-15T18:08:27.161Z,58.08
2018-05-15T18:10:56.288Z,58.10
2018-05-15T18:13:24.641Z,58.43
2018-05-15T18:15:52.977Z,58.25
2018-05-15T18:18:21.329Z,57.84
2018-05-15T18:20:49.657Z,58.43
2018-05-15T18:23:18.927Z,57.55
2018-05-15T18:25:47.255Z,57.11
2018-05-15T18:28:17.012Z,56.39
2018-05-15T18:30:45.350Z,59.06
2018-05-15T18:33:14.630Z,59.46
2018-05-15T18:35:43.568Z,61.28
2018-05-15T18:38:12.694Z,60.00
2018-05-15T18:40:41.017Z,59.83
2018-05-15T18:43:10.721Z,60.60
2018-05-15T18:45:39.433Z,61.22
2018-05-15T18:48:07.806Z,62.64
2018-05-15T18:50:36.145Z,64.76
2018-05-15T18:53:05.052Z,62.21
2018-05-15T18:55:34.054Z,61.79
2018-05-15T18:58:02.451Z,61.66
2018-05-15T19:00:30.794Z,61.93
2018-05-15T19:03:00.457Z,61.88
2018-05-15T19:05:28.828Z,61.17
2018-05-15T19:07:58.034Z,61.63
2018-05-15T19:10:26.368Z,60.01
2018-05-15T19:12:54.987Z,58.97
2018-05-15T19:15:24.094Z,59.11
2018-05-15T19:17:52.893Z,59.60
2018-05-15T19:20:22.136Z,59.84
2018-05-15T19:22:50.487Z,60.20
2018-05-15T19:25:18.825Z,60.12
2018-05-15T19:27:47.214Z,60.76
2018-05-15T19:30:15.585Z,60.75
2018-05-15T19:32:44.984Z,61.24
2018-05-15T19:35:19.205Z,61.73
2018-05-15T19:37:47.949Z,61.61
2018-05-15T19:40:17.292Z,61.85
2018-05-15T19:42:46.441Z,61.10
2018-05-15T19:45:16.302Z,60.90
2018-05-15T19:47:44.910Z,60.24
2018-05-15T19:50:13.285Z,61.68
2018-05-15T19:52:41.651Z,62.08
2018-05-15T19:55:10.048Z,62.25
2018-05-15T19:57:38.382Z,62.41
2018-05-15T20:00:06.737Z,62.09
2018-05-15T20:02:35.150Z,64.06
2018-05-15T20:05:04.885Z,63.66
2018-05-15T20:07:33.511Z,63.51
2018-05-15T20:10:01.902Z,64.12
2018-05-15T20:12:30.273Z,65.97
2018-05-15T20:14:59.582Z,69.17
2018-05-15T20:17:27.916Z,67.77
2018-05-15T20:19:56.669Z,66.35
2018-05-15T20:22:24.981Z,65.34
2018-05-15T20:24:53.343Z,65.05
2018-05-15T20:27:21.721Z,63.89
2018-05-15T20:29:51.311Z,64.64
2018-05-15T20:32:19.894Z,67.94
2018-05-15T20:34:48.274Z,68.87
2018-05-15T20:37:16.626Z,69.76
2018-05-15T20:39:45.149Z,70.02
2018-05-15T20:42:13.510Z,69.78
2018-05-15T20:44:42.069Z,69.34
2018-05-15T20:47:10.835Z,69.31
2018-05-15T20:49:39.234Z,68.77
2018-05-15T20:52:08.356Z,67.85
2018-05-15T20:54:36.653Z,67.95
2018-05-15T20:57:05.848Z,67.79
2018-05-15T20:59:34.231Z,67.02
2018-05-15T21:02:02.617Z,68.09
2018-05-15T21:04:30.965Z,68.82
2018-05-15T21:06:59.288Z,69.97
2018-05-15T21:09:27.644Z,69.34
2018-05-15T21:11:56.774Z,69.88
2018-05-15T21:14:25.928Z,69.76
2018-05-15T21:16:54.332Z,69.57
2018-05-15T21:19:22.695Z,70.30
2018-05-15T21:21:51.351Z,71.12
2018-05-15T21:24:19.636Z,70.37
2018-05-15T21:26:47.972Z,70.96
2018-05-15T21:29:16.369Z,70.55
2018-05-15T21:31:44.701Z,72.06
2018-05-15T21:34:13.833Z,71.83
2018-05-15T21:36:42.761Z,72.47
2018-05-15T21:39:11.115Z,72.90
2018-05-15T21:41:39.443Z,72.39
2018-05-15T21:44:07.830Z,73.51
2018-05-15T21:46:36.162Z,72.77
2018-05-15T21:49:04.850Z,73.93
2018-05-15T21:51:34.091Z,74.79
2018-05-15T21:54:02.553Z,74.75
2018-05-15T21:56:30.882Z,75.40
2018-05-15T21:58:59.248Z,74.99
2018-05-15T22:01:27.979Z,74.98
2018-05-15T22:03:56.356Z,76.11
2018-05-15T22:06:24.915Z,75.63
2018-05-15T22:08:55.022Z,77.19
2018-05-15T22:11:22.822Z,75.93
2018-05-15T22:14:02.565Z,76.53
2018-05-15T22:16:49.857Z,74.23
2018-05-15T22:19:35.982Z,73.90
2018-05-15T22:22:14.628Z,75.28
2018-05-15T22:24:42.707Z,74.89
2018-05-15T22:27:11.041Z,74.62
2018-05-15T22:29:39.385Z,74.86
2018-05-15T22:32:09.070Z,74.50
2018-05-15T22:34:37.437Z,74.32
2018-05-15T22:37:06.365Z,74.16
2018-05-15T22:39:35.428Z,74.12
2018-05-15T22:42:04.564Z,75.59
2018-05-15T22:44:33.844Z,74.82
2018-05-15T22:47:02.182Z,75.30
2018-05-15T22:49:31.139Z,75.87
2018-05-15T22:51:59.486Z,76.27
2018-05-15T22:54:27.868Z,77.42
2018-05-15T22:56:56.230Z,77.57
2018-05-15T22:59:24.767Z,79.37
2018-05-15T23:01:53.917Z,78.86
2018-05-15T23:04:22.644Z,77.78
2018-05-15T23:06:50.968Z,78.11
2018-05-15T23:09:19.407Z,78.73
2018-05-15T23:11:47.753Z,79.31
2018-05-15T23:14:16.427Z,79.64
2018-05-15T23:16:45.672Z,79.54
2018-05-15T23:19:15.234Z,79.60
2018-05-15T23:21:44.800Z,79.67
2018-05-15T23:24:13.232Z,79.54
2018-05-15T23:26:41.569Z,80.02
2018-05-15T23:29:09.974Z,79.45
2018-05-15T23:31:38.307Z,79.98
2018-05-15T23:34:07.509Z,79.73
2018-05-15T23:36:36.717Z,80.18
2018-05-15T23:39:06.641Z,80.77
2018-05-15T23:41:34.977Z,80.47
2018-05-15T23:44:03.821Z,80.11
2018-05-15T23:46:32.254Z,80.83
2018-05-15T23:49:01.318Z,81.00
2018-05-15T23:51:29.676Z,80.98
2018-05-15T23:53:58.011Z,81.61
2018-05-15T23:56:27.174Z,81.95
2018-05-15T23:58:55.498Z,82.10
